Time;durP1;ratioP1;P1;durP2;ratioP2;P2;SDS_P1;SDS_P2;PMS_P1;PMS_P2;Temp;Humidity;BMP_temperature;BMP_pressure;BME280_temperature;BME280_humidity;BME280_pressure;Samples;Min_cycle;Max_cycle;Signal;HPM_P1;HPM_P2
2023/02/26 00:02:09;;;;;;;6.57;3.43;;;;;-0.20;101274.00;;;;9872365;30;20211;-78
2023/02/26 00:07:11;;;;;;;6.67;3.17;;;;;-0.40;101272.00;;;;9862828;29;20275;-78
2023/02/26 00:12:13;;;;;;;4.20;2.63;;;;;-0.60;101277.00;;;;9872165;30;20203;-78
2023/02/26 00:17:31;;;;;;;5.10;2.60;;;;;-0.80;101279.00;;;;9853218;30;20294;-78
2023/02/26 00:22:35;;;;;;;8.87;3.70;;;;;-1.00;101274.00;;;;9887216;30;20222;-78
2023/02/26 00:27:37;;;;;;;9.63;3.03;;;;;-1.20;101289.00;;;;9871480;30;20215;-78
2023/02/26 00:32:40;;;;;;;11.63;3.90;;;;;-1.30;101281.00;;;;9872376;30;20743;-78
2023/02/26 00:38:00;;;;;;;10.47;4.27;;;;;-1.30;101284.00;;;;9871510;30;20199;-78
2023/02/26 00:43:05;;;;;;;10.50;3.40;;;;;-1.20;101294.00;;;;9872374;30;20611;-78
2023/02/26 00:48:44;;;;;;;11.50;3.50;;;;;-1.20;101286.00;;;;9857392;30;20268;-79
2023/02/26 00:54:03;;;;;;;5.30;2.20;;;;;-1.10;101294.00;;;;9875860;30;20278;-79
2023/02/26 00:59:05;;;;;;;7.00;2.63;;;;;-1.00;101298.00;;;;9857493;30;20187;-78
2023/02/26 01:04:10;;;;;;;9.47;2.70;;;;;-0.90;101300.00;;;;9867240;30;20236;-78
2023/02/26 01:09:33;;;;;;;4.00;2.53;;;;;-0.70;101306.00;;;;9834745;30;20697;-78
2023/02/26 01:14:35;;;;;;;10.33;2.87;;;;;-0.60;101310.00;;;;9861206;30;20218;-78
2023/02/26 01:19:57;;;;;;;10.10;2.60;;;;;-0.60;101307.00;;;;9836659;30;20208;-77
2023/02/26 01:25:09;;;;;;;9.67;2.47;;;;;-0.70;101308.00;;;;9856998;30;20212;-78
2023/02/26 01:30:11;;;;;;;7.07;2.53;;;;;-0.70;101326.00;;;;9868499;30;20240;-78
2023/02/26 01:35:25;;;;;;;8.93;2.83;;;;;-0.70;101303.00;;;;9821495;30;20669;-78
2023/02/26 01:40:47;;;;;;;10.30;3.03;;;;;-0.70;101311.00;;;;9836197;30;20242;-78
2023/02/26 01:46:06;;;;;;;8.57;2.33;;;;;-0.60;101312.00;;;;9850335;30;20304;-78
2023/02/26 01:51:08;;;;;;;11.73;3.27;;;;;-0.60;101314.00;;;;9858390;30;20200;-78
2023/02/26 01:56:16;;;;;;;14.20;2.33;;;;;-0.50;101312.00;;;;9905584;30;20211;-78
2023/02/26 02:01:19;;;;;;;4.73;2.33;;;;;-0.50;101314.00;;;;9871690;30;20196;-79
2023/02/26 02:06:23;;;;;;;9.20;2.63;;;;;-0.50;101326.00;;;;9857136;30;20772;-79
2023/02/26 02:11:26;;;;;;;8.13;2.47;;;;;-0.60;101326.00;;;;9866681;30;20274;-78
2023/02/26 02:16:46;;;;;;;4.17;1.97;;;;;-0.60;101330.00;;;;9856097;30;20200;-79
2023/02/26 02:22:13;;;;;;;3.93;2.10;;;;;-0.50;101336.00;;;;9856744;30;20738;-79
2023/02/26 02:27:49;;;;;;;6.00;2.40;;;;;-0.50;101331.00;;;;9869285;30;20626;-79
2023/02/26 02:32:58;;;;;;;9.77;2.17;;;;;-0.50;101336.00;;;;9856391;30;20309;-78
2023/02/26 02:38:12;;;;;;;6.53;1.87;;;;;-0.60;101342.00;;;;9854949;30;20576;-79
2023/02/26 02:43:18;;;;;;;9.77;3.17;;;;;-0.50;101351.00;;;;9855531;30;20232;-79
2023/02/26 02:48:29;;;;;;;4.70;1.60;;;;;-0.30;101347.00;;;;9826194;30;20205;-78
2023/02/26 02:53:52;;;;;;;5.23;1.97;;;;;-0.10;101347.00;;;;9883570;30;20200;-79
2023/02/26 02:59:00;;;;;;;3.27;1.97;;;;;0.00;101364.00;;;;9890910;29;20211;-78
2023/02/26 03:04:10;;;;;;;6.03;2.00;;;;;0.10;101378.00;;;;9860954;30;20295;-79
2023/02/26 03:09:12;;;;;;;4.47;2.00;;;;;0.00;101382.00;;;;9838269;30;20251;-79
2023/02/26 03:14:15;;;;;;;4.87;1.70;;;;;-0.10;101383.00;;;;9838336;30;20189;-78
2023/02/26 03:19:45;;;;;;;2.33;1.50;;;;;-0.10;101383.00;;;;9838174;30;20609;-78
2023/02/26 03:25:05;;;;;;;5.83;2.00;;;;;-0.20;101393.00;;;;9842381;30;20215;-78
2023/02/26 03:30:27;;;;;;;7.77;1.83;;;;;-0.20;101393.00;;;;9917639;29;20223;-79
2023/02/26 03:35:53;;;;;;;4.73;1.70;;;;;-0.20;101400.00;;;;9889421;30;20184;-78
2023/02/26 03:41:21;;;;;;;8.23;2.20;;;;;-0.20;101398.00;;;;9851837;30;20196;-79
2023/02/26 03:46:32;;;;;;;7.20;1.77;;;;;-0.30;101416.00;;;;9904264;29;20229;-78
2023/02/26 03:51:37;;;;;;;4.77;1.53;;;;;-0.30;101416.00;;;;9889824;29;20192;-78
2023/02/26 03:57:03;;;;;;;6.67;2.07;;;;;-0.40;101424.00;;;;9856100;30;20668;-78
2023/02/26 04:02:42;;;;;;;2.60;1.73;;;;;-0.40;101426.00;;;;9862004;30;20203;-78
2023/02/26 04:07:50;;;;;;;7.57;1.77;;;;;-0.40;101442.00;;;;9858670;29;20241;-78
2023/02/26 04:12:51;;;;;;;3.67;1.30;;;;;-0.40;101447.00;;;;9858492;30;20597;-78
2023/02/26 04:17:54;;;;;;;5.70;1.63;;;;;-0.40;101457.00;;;;9858885;30;20231;-78
2023/02/26 04:22:56;;;;;;;3.87;1.90;;;;;-0.50;101467.00;;;;9858742;30;20703;-77
2023/02/26 04:27:58;;;;;;;4.83;1.87;;;;;-0.60;101465.00;;;;9854940;30;20200;-77
2023/02/26 04:33:00;;;;;;;2.47;1.50;;;;;-0.60;101466.00;;;;9875922;30;20196;-77
2023/02/26 04:38:04;;;;;;;2.57;1.40;;;;;-0.70;101479.00;;;;9850750;30;20200;-77
2023/02/26 04:43:07;;;;;;;3.07;1.70;;;;;-0.80;101473.00;;;;9851101;30;20232;-77
2023/02/26 04:48:17;;;;;;;2.97;1.37;;;;;-0.80;101479.00;;;;9837886;30;20193;-77
2023/02/26 04:53:19;;;;;;;6.37;1.80;;;;;-0.90;101489.00;;;;9868003;30;20225;-77
2023/02/26 04:58:22;;;;;;;3.70;1.73;;;;;-1.00;101484.00;;;;9902629;30;20200;-77
2023/02/26 05:03:24;;;;;;;6.67;1.40;;;;;-1.10;101501.00;;;;9857246;30;20255;-77
2023/02/26 05:08:26;;;;;;;4.13;1.50;;;;;-1.10;101503.00;;;;9858367;29;20239;-77
2023/02/26 05:13:28;;;;;;;5.07;1.33;;;;;-1.20;101500.00;;;;9858293;30;20196;-77
2023/02/26 05:18:31;;;;;;;5.50;1.83;;;;;-1.20;101514.00;;;;9888126;30;20192;-77
2023/02/26 05:23:33;;;;;;;1.73;1.10;;;;;-1.20;101517.00;;;;9874297;29;20265;-77
2023/02/26 05:28:35;;;;;;;8.53;1.50;;;;;-1.30;101518.00;;;;9853938;30;20216;-77
2023/02/26 05:33:37;;;;;;;6.23;1.60;;;;;-1.30;101518.00;;;;9873841;30;20197;-77
2023/02/26 05:38:39;;;;;;;3.80;1.47;;;;;-1.40;101528.00;;;;9872943;30;20197;-77
2023/02/26 05:43:41;;;;;;;5.03;1.33;;;;;-1.40;101528.00;;;;9843408;30;20688;-77
2023/02/26 05:48:43;;;;;;;7.40;1.80;;;;;-1.40;101538.00;;;;9857764;30;20200;-77
2023/02/26 05:53:46;;;;;;;4.87;2.30;;;;;-1.40;101549.00;;;;9860723;30;20189;-78
2023/02/26 05:58:48;;;;;;;2.30;1.20;;;;;-1.50;101556.00;;;;9883151;30;20747;-79
2023/02/26 06:03:50;;;;;;;2.77;1.00;;;;;-1.50;101563.00;;;;9894364;30;20218;-78
2023/02/26 06:08:53;;;;;;;3.77;1.50;;;;;-1.50;101572.00;;;;9878926;29;20238;-78
2023/02/26 06:13:55;;;;;;;5.20;1.27;;;;;-1.50;101578.00;;;;9878713;30;20192;-77
2023/02/26 06:18:57;;;;;;;1.93;1.03;;;;;-1.60;101580.00;;;;9879838;30;20202;-77
2023/02/26 06:23:59;;;;;;;4.50;1.27;;;;;-1.60;101591.00;;;;9893497;30;20219;-79
2023/02/26 06:29:01;;;;;;;2.07;1.43;;;;;-1.60;101599.00;;;;9878288;30;20239;-77
2023/02/26 06:34:03;;;;;;;2.27;1.17;;;;;-1.60;101613.00;;;;9893115;29;20223;-77
2023/02/26 06:39:06;;;;;;;1.67;1.27;;;;;-1.60;101615.00;;;;9878625;30;20227;-76
2023/02/26 06:44:10;;;;;;;5.33;1.40;;;;;-1.60;101614.00;;;;9863145;30;20222;-79
2023/02/26 06:49:11;;;;;;;3.80;1.00;;;;;-1.60;101622.00;;;;9874906;30;20843;-77
2023/02/26 06:54:13;;;;;;;7.93;1.20;;;;;-1.50;101626.00;;;;9892455;30;20223;-79
2023/02/26 06:59:15;;;;;;;5.30;1.10;;;;;-1.50;101636.00;;;;9871252;30;20564;-77
2023/02/26 07:04:18;;;;;;;2.73;1.10;;;;;-1.40;101639.00;;;;9891633;30;20540;-77
2023/02/26 07:09:21;;;;;;;1.60;1.27;;;;;-1.20;101645.00;;;;9911009;29;20207;-78
2023/02/26 07:14:23;;;;;;;1.90;0.93;;;;;-1.10;101655.00;;;;9892564;29;20941;-77
2023/02/26 07:19:25;;;;;;;1.73;0.77;;;;;-0.80;101664.00;;;;9862422;30;20265;-78
2023/02/26 07:24:27;;;;;;;1.67;0.83;;;;;-0.60;101676.00;;;;9855044;30;20224;-77
2023/02/26 07:29:29;;;;;;;2.53;1.13;;;;;-0.40;101682.00;;;;9870408;30;20672;-77
2023/02/26 07:34:32;;;;;;;5.67;1.20;;;;;-0.10;101694.00;;;;9876958;30;20207;-77
2023/02/26 07:39:34;;;;;;;4.70;0.90;;;;;0.10;101701.00;;;;9876150;30;20206;-77
2023/02/26 07:44:36;;;;;;;3.03;0.83;;;;;0.30;101704.00;;;;9859185;29;20211;-79
2023/02/26 07:49:39;;;;;;;6.13;1.37;;;;;0.50;101705.00;;;;9903825;29;20223;-76
2023/02/26 07:54:41;;;;;;;4.17;1.17;;;;;0.70;101725.00;;;;9874769;30;20307;-78
2023/02/26 07:59:43;;;;;;;2.60;1.10;;;;;0.90;101723.00;;;;9892137;29;20215;-78
2023/02/26 08:04:45;;;;;;;2.27;1.20;;;;;1.20;101729.00;;;;9874979;30;20304;-76
2023/02/26 08:09:47;;;;;;;2.87;0.93;;;;;1.40;101745.00;;;;9875148;30;20235;-79
2023/02/26 08:14:49;;;;;;;4.33;1.20;;;;;1.60;101738.00;;;;9908443;29;20290;-77
2023/02/26 08:19:52;;;;;;;5.60;1.00;;;;;1.80;101745.00;;;;9910249;29;20233;-77
2023/02/26 08:24:54;;;;;;;4.20;1.13;;;;;2.00;101738.00;;;;9940071;29;20219;-77
2023/02/26 08:29:56;;;;;;;7.20;2.03;;;;;2.30;101762.00;;;;9894899;29;20211;-77
2023/02/26 08:34:58;;;;;;;4.23;1.70;;;;;2.60;101762.00;;;;9903796;29;20237;-77
2023/02/26 08:40:01;;;;;;;5.63;1.43;;;;;3.10;101764.00;;;;9873689;30;20220;-77
2023/02/26 08:45:03;;;;;;;3.63;1.20;;;;;3.60;101765.00;;;;9898729;29;20215;-76
2023/02/26 08:50:06;;;;;;;5.00;1.23;;;;;4.00;101776.00;;;;9933033;29;20197;-76
2023/02/26 08:55:08;;;;;;;3.00;1.20;;;;;4.20;101774.00;;;;9939337;29;20265;-76
2023/02/26 09:00:11;;;;;;;2.37;0.87;;;;;4.60;101784.00;;;;9890250;30;20743;-76
2023/02/26 09:05:14;;;;;;;4.77;1.50;;;;;4.80;101782.00;;;;9880727;29;20258;-77
2023/02/26 09:10:16;;;;;;;2.50;1.00;;;;;4.90;101796.00;;;;9897924;29;20241;-77
2023/02/26 09:15:19;;;;;;;3.13;0.90;;;;;5.20;101805.00;;;;9913727;29;20674;-77
2023/02/26 09:20:22;;;;;;;2.97;1.40;;;;;5.50;101811.00;;;;9926183;29;20214;-77
2023/02/26 09:25:24;;;;;;;0.63;0.63;;;;;5.60;101812.00;;;;9915062;29;20715;-77
2023/02/26 09:30:26;;;;;;;2.23;1.03;;;;;5.60;101816.00;;;;9927154;29;20295;-77
2023/02/26 09:35:28;;;;;;;2.70;1.00;;;;;5.60;101827.00;;;;9915658;29;20694;-77
2023/02/26 09:40:44;;;;;;;3.67;0.77;;;;;5.90;101824.00;;;;9910208;29;20270;-77
2023/02/26 09:45:49;;;;;;;1.73;0.90;;;;;6.30;101832.00;;;;9900162;29;20307;-77
2023/02/26 09:50:55;;;;;;;2.60;0.73;;;;;6.50;101831.00;;;;9878426;30;20207;-77
2023/02/26 09:56:02;;;;;;;1.63;0.80;;;;;6.80;101844.00;;;;9903074;29;20209;-77
2023/02/26 10:01:12;;;;;;;6.70;1.27;;;;;6.80;101845.00;;;;9891941;29;20269;-77
2023/02/26 10:06:33;;;;;;;5.07;0.70;;;;;6.80;101845.00;;;;9877169;29;20283;-77
2023/02/26 10:12:01;;;;;;;4.80;0.87;;;;;6.60;101855.00;;;;9891444;30;20211;-77
2023/02/26 10:17:27;;;;;;;1.03;0.60;;;;;7.20;101850.00;;;;9896915;29;20293;-77
2023/02/26 10:22:42;;;;;;;1.53;0.90;;;;;7.60;101857.00;;;;9887238;29;20207;-78
2023/02/26 10:27:52;;;;;;;3.00;1.10;;;;;7.60;101860.00;;;;9918932;29;20227;-77
2023/02/26 10:33:02;;;;;;;2.57;0.80;;;;;8.00;101880.00;;;;9889908;29;20286;-77
2023/02/26 10:38:11;;;;;;;1.93;0.70;;;;;7.30;101880.00;;;;9889067;29;20207;-76
2023/02/26 10:43:16;;;;;;;1.10;0.70;;;;;6.90;101881.00;;;;9913906;29;20659;-78
2023/02/26 10:48:31;;;;;;;1.40;0.67;;;;;6.50;101885.00;;;;9896530;29;20207;-77
2023/02/26 10:53:33;;;;;;;2.63;0.70;;;;;6.80;101888.00;;;;9905720;29;20221;-77
2023/02/26 10:58:35;;;;;;;3.57;1.33;;;;;6.30;101891.00;;;;9910192;29;20218;-77
2023/02/26 11:03:41;;;;;;;1.83;0.60;;;;;6.30;101889.00;;;;9906157;29;20219;-77
2023/02/26 11:08:46;;;;;;;0.90;0.60;;;;;6.00;101891.00;;;;9866591;29;20239;-77
2023/02/26 11:13:50;;;;;;;5.00;0.73;;;;;6.10;101902.00;;;;9854155;30;20201;-77
2023/02/26 11:18:54;;;;;;;0.90;0.53;;;;;5.50;101901.00;;;;9865232;30;20212;-78
2023/02/26 11:24:31;;;;;;;1.30;0.60;;;;;6.70;101891.00;;;;9871546;29;20220;-77
2023/02/26 11:29:38;;;;;;;1.53;0.60;;;;;7.40;101902.00;;;;9865307;30;20208;-78
2023/02/26 11:34:46;;;;;;;2.10;0.60;;;;;8.60;101898.00;;;;9841124;30;20200;-78
2023/02/26 11:39:56;;;;;;;1.23;0.73;;;;;7.90;101914.00;;;;9856940;29;20695;-78
2023/02/26 11:44:59;;;;;;;3.47;0.70;;;;;8.40;101898.00;;;;9831646;30;20227;-79
2023/02/26 11:50:09;;;;;;;1.73;0.73;;;;;8.50;101909.00;;;;9841952;30;20216;-78
2023/02/26 11:55:31;;;;;;;1.20;0.70;;;;;7.10;101904.00;;;;9856889;30;20206;-78
2023/02/26 12:00:37;;;;;;;0.80;0.50;;;;;6.30;101894.00;;;;9843897;30;20207;-78
2023/02/26 12:05:39;;;;;;;2.37;1.00;;;;;6.80;101894.00;;;;9857663;30;20755;-80
2023/02/26 12:10:51;;;;;;;1.33;0.60;;;;;8.20;101887.00;;;;9900160;29;20385;-77
2023/02/26 12:16:35;;;;;;;1.97;0.80;;;;;7.10;101900.00;;;;9909776;29;20207;-78
2023/02/26 12:21:40;;;;;;;0.63;0.50;;;;;6.20;101892.00;;;;9839892;29;20263;-78
2023/02/26 12:26:54;;;;;;;1.53;0.80;;;;;6.90;101890.00;;;;9874808;29;20307;-77
2023/02/26 12:32:22;;;;;;;2.70;0.87;;;;;7.40;101908.00;;;;9893179;29;20571;-77
2023/02/26 12:37:36;;;;;;;2.17;0.90;;;;;6.10;101901.00;;;;9900818;29;20663;-76
2023/02/26 12:42:44;;;;;;;1.80;0.70;;;;;6.30;101904.00;;;;9907848;29;20287;-79
2023/02/26 12:48:18;;;;;;;2.03;1.03;;;;;6.60;101894.00;;;;9903525;29;20258;-81
2023/02/26 12:53:32;;;;;;;5.30;0.90;;;;;8.50;101884.00;;;;9873780;30;20693;-78
2023/02/26 12:58:40;;;;;;;1.07;0.63;;;;;8.50;101904.00;;;;9889701;29;20235;-76
2023/02/26 13:04:25;;;;;;;1.93;0.57;;;;;7.10;101914.00;;;;9902838;29;20256;-76
2023/02/26 13:10:05;;;;;;;1.20;0.70;;;;;6.40;101914.00;;;;9873637;29;20245;-75
2023/02/26 13:15:30;;;;;;;2.63;0.80;;;;;8.00;101907.00;;;;9885752;30;20771;-78
2023/02/26 13:20:36;;;;;;;1.53;0.80;;;;;8.80;101909.00;;;;9853152;30;20215;-76
2023/02/26 13:25:40;;;;;;;1.67;0.50;;;;;8.80;101906.00;;;;9830613;30;20822;-81
2023/02/26 13:30:49;;;;;;;2.50;0.77;;;;;8.70;101897.00;;;;9867765;30;20207;-78
2023/02/26 13:35:53;;;;;;;1.47;0.77;;;;;8.90;101889.00;;;;9879836;30;20200;-78
2023/02/26 13:41:32;;;;;;;1.33;0.80;;;;;9.10;101895.00;;;;9865571;30;20232;-78
2023/02/26 13:46:51;;;;;;;2.97;0.90;;;;;9.30;101893.00;;;;9846768;29;20310;-77
2023/02/26 13:51:54;;;;;;;1.53;0.50;;;;;9.40;101886.00;;;;9891876;30;20195;-77
2023/02/26 13:57:14;;;;;;;2.50;0.70;;;;;9.30;101893.00;;;;9853653;30;20304;-77
2023/02/26 14:02:19;;;;;;;1.13;0.50;;;;;9.20;101885.00;;;;9836981;30;20704;-80
2023/02/26 14:07:46;;;;;;;2.20;0.70;;;;;9.30;101874.00;;;;9842883;29;20308;-80
2023/02/26 14:13:13;;;;;;;3.33;0.80;;;;;10.30;101864.00;;;;9866024;30;20208;-77
2023/02/26 14:18:38;;;;;;;1.27;0.80;;;;;11.70;101850.00;;;;9846345;30;20219;-77
2023/02/26 14:23:41;;;;;;;0.83;0.57;;;;;11.60;101853.00;;;;9871037;30;20301;-79
2023/02/26 14:29:04;;;;;;;1.20;0.73;;;;;12.50;101846.00;;;;9860616;30;20231;-76
2023/02/26 14:34:15;;;;;;;3.47;0.93;;;;;10.80;101876.00;;;;9852594;30;20232;-79
2023/02/26 14:39:54;;;;;;;2.67;0.67;;;;;10.60;101874.00;;;;9810024;30;20232;-76
2023/02/26 14:45:09;;;;;;;1.70;0.80;;;;;11.40;101849.00;;;;9883689;29;20622;-80
2023/02/26 14:50:17;;;;;;;1.90;0.80;;;;;11.00;101862.00;;;;9890266;30;20715;-79
2023/02/26 14:55:57;;;;;;;1.50;0.60;;;;;11.70;101841.00;;;;9858813;30;20201;-79
2023/02/26 15:01:38;;;;;;;0.70;0.57;;;;;12.30;101854.00;;;;9879399;29;20298;-80
2023/02/26 15:07:06;;;;;;;3.80;0.70;;;;;11.00;101847.00;;;;9859450;30;20235;-76
2023/02/26 15:12:17;;;;;;;2.17;0.97;;;;;12.80;101831.00;;;;9912485;29;20775;-80
2023/02/26 15:17:54;;;;;;;1.23;0.77;;;;;13.20;101834.00;;;;9925551;29;20652;-77
2023/02/26 15:23:15;;;;;;;1.70;1.03;;;;;12.00;101882.00;;;;9880490;29;20667;-77
2023/02/26 15:28:29;;;;;;;3.07;1.00;;;;;9.50;101892.00;;;;9904318;29;20325;-77
2023/02/26 15:33:33;;;;;;;2.90;0.90;;;;;10.30;101855.00;;;;9886542;29;20264;-79
2023/02/26 15:38:45;;;;;;;2.60;0.90;;;;;10.80;101880.00;;;;9909501;29;20563;-76
2023/02/26 15:44:00;;;;;;;1.33;0.83;;;;;7.70;101916.00;;;;9906879;29;20742;-76
2023/02/26 15:49:10;;;;;;;4.50;1.00;;;;;6.40;101914.00;;;;9924950;29;20199;-76
2023/02/26 15:54:18;;;;;;;6.50;1.27;;;;;5.90;101912.00;;;;9914598;29;20282;-79
2023/02/26 15:59:25;;;;;;;2.10;0.60;;;;;5.70;101915.00;;;;9885369;29;20236;-79
2023/02/26 16:04:27;;;;;;;2.37;0.70;;;;;5.50;101914.00;;;;9896653;29;20809;-79
2023/02/26 16:09:35;;;;;;;1.57;0.93;;;;;5.30;101916.00;;;;9867931;30;20236;-79
2023/02/26 16:14:40;;;;;;;4.33;1.00;;;;;5.10;101916.00;;;;9838834;30;20225;-79
2023/02/26 16:19:49;;;;;;;0.83;0.70;;;;;5.00;101914.00;;;;9889588;29;20206;-79
2023/02/26 16:25:14;;;;;;;4.23;0.97;;;;;4.90;101909.00;;;;9924463;29;20215;-79
2023/02/26 16:30:22;;;;;;;4.00;0.80;;;;;4.70;101920.00;;;;9868117;30;20204;-78
2023/02/26 16:35:33;;;;;;;2.87;1.00;;;;;4.60;101920.00;;;;9902210;29;20191;-79
2023/02/26 16:40:40;;;;;;;1.60;0.70;;;;;4.50;101932.00;;;;9835432;30;20325;-80
2023/02/26 16:45:49;;;;;;;2.07;1.00;;;;;4.40;101933.00;;;;9884849;30;20755;-80
2023/02/26 16:51:03;;;;;;;2.10;0.80;;;;;4.20;101935.00;;;;9865851;30;20196;-79
2023/02/26 16:56:05;;;;;;;2.43;1.00;;;;;4.10;101946.00;;;;9854278;30;20203;-78
2023/02/26 17:01:12;;;;;;;2.10;0.83;;;;;4.00;101946.00;;;;9884452;30;20195;-79
2023/02/26 17:06:18;;;;;;;2.57;1.10;;;;;3.70;101944.00;;;;9870302;30;20241;-80
2023/02/26 17:11:37;;;;;;;1.23;1.00;;;;;3.50;101955.00;;;;9904536;29;20210;-79
2023/02/26 17:16:40;;;;;;;3.97;1.33;;;;;3.40;101959.00;;;;9876809;29;20213;-80
2023/02/26 17:21:53;;;;;;;3.30;1.43;;;;;3.30;101958.00;;;;9905035;29;20268;-79
2023/02/26 17:26:56;;;;;;;3.70;1.30;;;;;3.10;101970.00;;;;9904804;29;20218;-80
2023/02/26 17:31:58;;;;;;;4.40;1.60;;;;;2.90;101968.00;;;;9916762;29;20290;-80
2023/02/26 17:37:04;;;;;;;4.37;1.90;;;;;2.80;101982.00;;;;9901804;29;20252;-80
2023/02/26 17:42:18;;;;;;;3.93;2.13;;;;;2.60;101976.00;;;;9903248;29;20203;-79
2023/02/26 17:47:23;;;;;;;7.03;2.67;;;;;2.50;101988.00;;;;9918830;29;20620;-79
2023/02/26 17:52:25;;;;;;;3.27;1.67;;;;;2.40;101996.00;;;;9948833;29;20223;-79
2023/02/26 17:57:27;;;;;;;3.77;1.70;;;;;2.40;102003.00;;;;9901101;29;20191;-79
2023/02/26 18:02:29;;;;;;;2.73;1.80;;;;;2.40;102012.00;;;;9930924;29;20579;-79
2023/02/26 18:07:32;;;;;;;1.30;1.20;;;;;2.30;102018.00;;;;9896015;29;20235;-79
2023/02/26 18:12:33;;;;;;;2.97;1.10;;;;;2.30;102018.00;;;;9879049;30;20699;-79
2023/02/26 18:17:36;;;;;;;2.43;1.23;;;;;2.10;102018.00;;;;9863383;30;20260;-79
2023/02/26 18:22:38;;;;;;;1.97;1.23;;;;;2.00;102025.00;;;;9878574;30;20663;-79
2023/02/26 18:27:41;;;;;;;6.00;1.40;;;;;1.80;102021.00;;;;9863236;30;20238;-79
2023/02/26 18:32:43;;;;;;;3.53;1.30;;;;;1.70;102025.00;;;;9848843;30;20215;-79
2023/02/26 18:37:46;;;;;;;3.37;1.73;;;;;1.60;102030.00;;;;9877092;30;20203;-79
2023/02/26 18:42:48;;;;;;;2.83;1.70;;;;;1.50;102027.00;;;;9877947;30;20210;-80
2023/02/26 18:47:50;;;;;;;2.63;1.67;;;;;1.40;102031.00;;;;9862844;30;20231;-80
2023/02/26 18:52:52;;;;;;;3.60;1.90;;;;;1.30;102020.00;;;;9832169;30;20218;-79
2023/02/26 18:57:55;;;;;;;3.20;2.20;;;;;1.20;102034.00;;;;9826252;30;20208;-80
2023/02/26 19:02:57;;;;;;;2.93;2.00;;;;;1.10;102035.00;;;;9855266;30;20196;-79
2023/02/26 19:07:59;;;;;;;3.33;1.77;;;;;0.90;102038.00;;;;9854801;30;20775;-79
2023/02/26 19:13:03;;;;;;;3.87;2.70;;;;;0.90;102028.00;;;;9840453;30;20565;-79
2023/02/26 19:18:05;;;;;;;4.10;2.53;;;;;0.80;102030.00;;;;9854222;30;20657;-79
2023/02/26 19:23:08;;;;;;;3.10;1.90;;;;;0.70;102041.00;;;;9840735;30;20197;-79
2023/02/26 19:28:10;;;;;;;2.00;1.80;;;;;0.70;102039.00;;;;9876530;30;20234;-80
2023/02/26 19:33:11;;;;;;;5.93;2.33;;;;;0.70;102032.00;;;;9847716;30;20277;-80
2023/02/26 19:38:14;;;;;;;4.30;2.03;;;;;0.70;102049.00;;;;9882848;30;20207;-79
2023/02/26 19:43:16;;;;;;;2.37;1.90;;;;;0.70;102041.00;;;;9858715;29;20212;-79
2023/02/26 19:48:19;;;;;;;3.30;2.00;;;;;0.80;102052.00;;;;9853677;30;20568;-79
2023/02/26 19:53:22;;;;;;;3.13;1.93;;;;;0.80;102050.00;;;;9883217;29;20663;-80
2023/02/26 19:58:24;;;;;;;5.47;2.53;;;;;0.80;102062.00;;;;9852610;30;20323;-79
2023/02/26 20:03:27;;;;;;;4.33;2.20;;;;;0.70;102067.00;;;;9867221;30;20680;-79
2023/02/26 20:08:30;;;;;;;2.83;2.40;;;;;0.70;102078.00;;;;9876563;29;20265;-80
2023/02/26 20:13:33;;;;;;;2.33;1.53;;;;;0.60;102078.00;;;;9912161;29;20677;-80
2023/02/26 20:18:36;;;;;;;4.23;2.30;;;;;0.60;102084.00;;;;9912066;29;20199;-80
2023/02/26 20:23:39;;;;;;;2.90;1.93;;;;;0.60;102082.00;;;;9912112;29;20196;-80
2023/02/26 20:28:41;;;;;;;3.40;2.10;;;;;0.60;102099.00;;;;9911353;29;20321;-80
2023/02/26 20:33:43;;;;;;;3.13;2.10;;;;;0.60;102099.00;;;;9896281;29;20265;-79
2023/02/26 20:38:45;;;;;;;4.40;2.00;;;;;0.70;102105.00;;;;9896503;29;20199;-79
2023/02/26 20:43:48;;;;;;;3.73;1.63;;;;;0.80;102106.00;;;;9910833;29;20215;-80
2023/02/26 20:48:49;;;;;;;2.00;1.83;;;;;0.80;102112.00;;;;9895649;29;20284;-79
2023/02/26 20:53:51;;;;;;;2.80;1.53;;;;;0.80;102119.00;;;;9925364;29;20213;-80
2023/02/26 20:58:54;;;;;;;6.43;2.13;;;;;0.80;102122.00;;;;9920199;29;20252;-79
2023/02/26 21:03:56;;;;;;;6.07;2.00;;;;;0.80;102118.00;;;;9873080;30;20208;-81
2023/02/26 21:09:00;;;;;;;4.50;1.30;;;;;0.80;102127.00;;;;9885782;29;20228;-79
2023/02/26 21:14:03;;;;;;;1.90;1.50;;;;;0.80;102127.00;;;;9887139;30;20200;-79
2023/02/26 21:19:05;;;;;;;4.60;1.97;;;;;0.70;102127.00;;;;9872881;30;20192;-79
2023/02/26 21:24:07;;;;;;;4.10;1.67;;;;;0.70;102130.00;;;;9857747;30;20580;-80
2023/02/26 21:29:09;;;;;;;4.97;1.87;;;;;0.80;102133.00;;;;9872356;30;20322;-80
2023/02/26 21:34:11;;;;;;;7.27;2.07;;;;;0.70;102139.00;;;;9857556;30;20230;-79
2023/02/26 21:39:34;;;;;;;3.43;1.70;;;;;0.70;102149.00;;;;9835079;30;20295;-80
2023/02/26 21:44:36;;;;;;;3.00;1.20;;;;;0.70;102147.00;;;;9834739;30;20291;-79
2023/02/26 21:49:38;;;;;;;4.73;1.97;;;;;0.70;102140.00;;;;9829633;30;20286;-79
2023/02/26 21:54:40;;;;;;;10.10;1.57;;;;;0.60;102140.00;;;;9892251;29;20215;-80
2023/02/26 21:59:42;;;;;;;2.63;1.43;;;;;0.60;102138.00;;;;9855674;30;20199;-80
2023/02/26 22:04:44;;;;;;;2.73;1.53;;;;;0.50;102135.00;;;;9848813;29;20216;-79
2023/02/26 22:09:47;;;;;;;2.37;1.30;;;;;0.40;102129.00;;;;9863037;29;20227;-80
2023/02/26 22:14:50;;;;;;;4.17;1.30;;;;;0.30;102143.00;;;;9862785;30;20660;-80
2023/02/26 22:19:52;;;;;;;2.13;1.50;;;;;0.30;102163.00;;;;9863157;30;20192;-80
2023/02/26 22:24:54;;;;;;;4.60;1.67;;;;;0.20;102149.00;;;;9876890;30;20290;-80
2023/02/26 22:29:57;;;;;;;5.80;1.70;;;;;0.20;102153.00;;;;9877298;30;20242;-79
2023/02/26 22:34:59;;;;;;;2.03;1.30;;;;;0.20;102148.00;;;;9877328;30;20239;-79
2023/02/26 22:40:02;;;;;;;3.73;1.13;;;;;0.20;102154.00;;;;9892101;30;20207;-79
2023/02/26 22:45:05;;;;;;;3.87;1.40;;;;;0.20;102156.00;;;;9861688;30;20575;-80
2023/02/26 22:50:08;;;;;;;1.30;0.80;;;;;0.10;102156.00;;;;9862130;30;20208;-79
2023/02/26 22:55:11;;;;;;;2.13;1.33;;;;;0.10;102158.00;;;;9897321;29;20208;-79
2023/02/26 23:00:19;;;;;;;7.80;1.47;;;;;0.10;102169.00;;;;9862383;29;20208;-79
2023/02/26 23:05:21;;;;;;;3.37;1.10;;;;;0.00;102170.00;;;;9844888;30;20916;-79
2023/02/26 23:10:23;;;;;;;4.20;1.67;;;;;0.00;102169.00;;;;9879838;30;20232;-80
2023/02/26 23:15:25;;;;;;;2.73;1.50;;;;;-0.10;102158.00;;;;9890543;30;20229;-80
2023/02/26 23:20:27;;;;;;;1.70;1.00;;;;;-0.10;102162.00;;;;9922699;29;20286;-79
2023/02/26 23:25:30;;;;;;;2.30;1.30;;;;;-0.10;102162.00;;;;9912758;29;20218;-79
2023/02/26 23:30:32;;;;;;;4.03;1.50;;;;;-0.20;102171.00;;;;9898143;29;20187;-80
2023/02/26 23:35:35;;;;;;;8.30;1.17;;;;;-0.20;102173.00;;;;9882429;29;20537;-79
2023/02/26 23:40:37;;;;;;;2.03;1.17;;;;;-0.20;102164.00;;;;9898007;29;20286;-79
2023/02/26 23:45:39;;;;;;;3.07;1.20;;;;;-0.30;102174.00;;;;9894613;29;20222;-80
2023/02/26 23:50:41;;;;;;;4.13;0.90;;;;;-0.30;102168.00;;;;9911999;29;20206;-79
2023/02/26 23:55:43;;;;;;;2.13;1.17;;;;;-0.30;102177.00;;;;9886412;29;20670;-80
